sensor_id;sensor_type;location;lat;lon;timestamp;pressure;altitude;pressure_sealevel;temperature;humidity
57900;BME280;60605;53.716;19.940;2023-05-09T00:04:08;101676.09;;;5.57;76.94
57900;BME280;60605;53.716;19.940;2023-05-09T00:09:11;101675.03;;;5.44;77.24
57900;BME280;60605;53.716;19.940;2023-05-09T00:14:14;101668.85;;;5.31;78.02
57900;BME280;60605;53.716;19.940;2023-05-09T00:19:17;101671.34;;;5.21;78.73
57900;BME280;60605;53.716;19.940;2023-05-09T00:24:20;101673.14;;;5.11;78.96
57900;BME280;60605;53.716;19.940;2023-05-09T00:29:23;101669.20;;;5.02;79.46
57900;BME280;60605;53.716;19.940;2023-05-09T00:34:26;101664.91;;;4.97;80.01
57900;BME280;60605;53.716;19.940;2023-05-09T00:39:29;101663.41;;;4.92;80.76
57900;BME280;60605;53.716;19.940;2023-05-09T00:44:32;101662.36;;;4.89;81.29
57900;BME280;60605;53.716;19.940;2023-05-09T00:49:35;101661.98;;;4.86;81.33
57900;BME280;60605;53.716;19.940;2023-05-09T00:54:39;101660.80;;;4.82;81.25
57900;BME280;60605;53.716;19.940;2023-05-09T00:59:42;101657.53;;;4.77;81.60
57900;BME280;60605;53.716;19.940;2023-05-09T01:04:46;101653.64;;;4.73;81.22
57900;BME280;60605;53.716;19.940;2023-05-09T01:09:50;101655.69;;;4.71;81.00
57900;BME280;60605;53.716;19.940;2023-05-09T01:20:37;101655.18;;;4.68;82.38
57900;BME280;60605;53.716;19.940;2023-05-09T01:30:48;101650.28;;;4.73;82.02
57900;BME280;60605;53.716;19.940;2023-05-09T01:35:56;101648.27;;;4.71;81.35
57900;BME280;60605;53.716;19.940;2023-05-09T01:41:01;101648.41;;;4.65;81.44
57900;BME280;60605;53.716;19.940;2023-05-09T01:46:07;101652.06;;;4.60;81.77
57900;BME280;60605;53.716;19.940;2023-05-09T01:51:11;101648.77;;;4.56;81.66
57900;BME280;60605;53.716;19.940;2023-05-09T01:56:15;101649.30;;;4.49;81.59
57900;BME280;60605;53.716;19.940;2023-05-09T02:01:19;101646.95;;;4.40;81.74
57900;BME280;60605;53.716;19.940;2023-05-09T02:06:23;101643.48;;;4.31;82.16
57900;BME280;60605;53.716;19.940;2023-05-09T02:11:26;101645.95;;;4.25;82.30
57900;BME280;60605;53.716;19.940;2023-05-09T02:16:29;101646.38;;;4.17;82.42
57900;BME280;60605;53.716;19.940;2023-05-09T02:21:33;101650.52;;;4.12;82.53
57900;BME280;60605;53.716;19.940;2023-05-09T02:26:36;101649.23;;;4.06;82.63
57900;BME280;60605;53.716;19.940;2023-05-09T02:31:40;101650.05;;;4.00;82.93
57900;BME280;60605;53.716;19.940;2023-05-09T02:36:44;101650.50;;;3.95;83.10
57900;BME280;60605;53.716;19.940;2023-05-09T02:41:47;101651.52;;;3.89;83.36
57900;BME280;60605;53.716;19.940;2023-05-09T02:46:51;101657.40;;;3.85;83.86
57900;BME280;60605;53.716;19.940;2023-05-09T02:51:54;101657.00;;;3.86;84.75
57900;BME280;60605;53.716;19.940;2023-05-09T02:56:57;101653.34;;;3.88;84.42
57900;BME280;60605;53.716;19.940;2023-05-09T03:02:01;101653.30;;;3.89;84.08
57900;BME280;60605;53.716;19.940;2023-05-09T03:07:04;101650.83;;;3.92;84.60
57900;BME280;60605;53.716;19.940;2023-05-09T03:12:07;101651.36;;;3.99;84.46
57900;BME280;60605;53.716;19.940;2023-05-09T03:17:10;101652.39;;;4.07;84.12
57900;BME280;60605;53.716;19.940;2023-05-09T03:22:13;101659.04;;;4.11;83.52
57900;BME280;60605;53.716;19.940;2023-05-09T03:27:16;101660.70;;;4.17;83.53
57900;BME280;60605;53.716;19.940;2023-05-09T03:32:20;101658.08;;;4.26;83.58
57900;BME280;60605;53.716;19.940;2023-05-09T03:37:23;101657.24;;;4.39;83.35
57900;BME280;60605;53.716;19.940;2023-05-09T03:42:28;101659.03;;;4.55;82.97
57900;BME280;60605;53.716;19.940;2023-05-09T03:47:32;101661.66;;;4.75;82.49
57900;BME280;60605;53.716;19.940;2023-05-09T03:52:35;101663.90;;;5.06;81.99
57900;BME280;60605;53.716;19.940;2023-05-09T03:57:39;101662.80;;;5.94;80.66
57900;BME280;60605;53.716;19.940;2023-05-09T04:02:42;101666.48;;;7.40;78.03
57900;BME280;60605;53.716;19.940;2023-05-09T04:07:45;101667.50;;;9.01;73.92
57900;BME280;60605;53.716;19.940;2023-05-09T04:12:48;101671.03;;;10.47;69.23
57900;BME280;60605;53.716;19.940;2023-05-09T04:17:52;101669.20;;;11.94;64.74
57900;BME280;60605;53.716;19.940;2023-05-09T04:22:55;101669.86;;;13.11;58.89
57900;BME280;60605;53.716;19.940;2023-05-09T04:27:58;101669.55;;;13.93;55.28
57900;BME280;60605;53.716;19.940;2023-05-09T04:33:01;101677.25;;;14.76;53.42
57900;BME280;60605;53.716;19.940;2023-05-09T04:38:04;101675.90;;;15.89;51.03
57900;BME280;60605;53.716;19.940;2023-05-09T04:43:07;101677.69;;;16.84;47.67
57900;BME280;60605;53.716;19.940;2023-05-09T04:48:10;101678.13;;;17.68;45.17
57900;BME280;60605;53.716;19.940;2023-05-09T04:53:13;101683.28;;;18.47;43.16
57900;BME280;60605;53.716;19.940;2023-05-09T04:58:16;101687.77;;;19.06;41.27
57900;BME280;60605;53.716;19.940;2023-05-09T05:03:19;101687.08;;;19.53;39.54
57900;BME280;60605;53.716;19.940;2023-05-09T05:08:22;101680.34;;;20.18;38.69
57900;BME280;60605;53.716;19.940;2023-05-09T05:13:26;101685.57;;;20.93;37.48
57900;BME280;60605;53.716;19.940;2023-05-09T05:18:29;101688.23;;;21.38;35.74
57900;BME280;60605;53.716;19.940;2023-05-09T05:23:32;101686.08;;;22.13;34.87
57900;BME280;60605;53.716;19.940;2023-05-09T05:28:35;101684.02;;;22.52;33.32
57900;BME280;60605;53.716;19.940;2023-05-09T05:33:38;101684.65;;;22.87;32.96
57900;BME280;60605;53.716;19.940;2023-05-09T05:38:41;101682.61;;;23.74;32.26
57900;BME280;60605;53.716;19.940;2023-05-09T05:43:44;101680.05;;;24.60;31.37
57900;BME280;60605;53.716;19.940;2023-05-09T05:48:47;101675.15;;;25.32;30.82
57900;BME280;60605;53.716;19.940;2023-05-09T05:53:50;101674.95;;;25.94;29.82
57900;BME280;60605;53.716;19.940;2023-05-09T05:58:53;101676.21;;;26.57;29.15
57900;BME280;60605;53.716;19.940;2023-05-09T06:03:56;101675.84;;;27.35;28.12
57900;BME280;60605;53.716;19.940;2023-05-09T06:09:00;101672.16;;;27.84;27.13
57900;BME280;60605;53.716;19.940;2023-05-09T06:14:02;101673.14;;;28.20;25.90
57900;BME280;60605;53.716;19.940;2023-05-09T06:19:06;101668.79;;;28.34;26.03
57900;BME280;60605;53.716;19.940;2023-05-09T06:24:09;101670.52;;;28.81;25.23
57900;BME280;60605;53.716;19.940;2023-05-09T06:29:29;101668.20;;;28.66;25.12
57900;BME280;60605;53.716;19.940;2023-05-09T06:34:32;101663.55;;;28.79;25.26
57900;BME280;60605;53.716;19.940;2023-05-09T06:39:35;101664.52;;;29.22;24.54
57900;BME280;60605;53.716;19.940;2023-05-09T06:44:38;101667.10;;;29.56;24.20
57900;BME280;60605;53.716;19.940;2023-05-09T06:49:41;101666.55;;;29.84;24.06
57900;BME280;60605;53.716;19.940;2023-05-09T06:54:44;101670.73;;;30.65;22.79
57900;BME280;60605;53.716;19.940;2023-05-09T06:59:47;101669.65;;;30.54;21.53
57900;BME280;60605;53.716;19.940;2023-05-09T07:04:51;101664.27;;;30.33;22.20
57900;BME280;60605;53.716;19.940;2023-05-09T07:09:54;101663.23;;;30.60;21.20
57900;BME280;60605;53.716;19.940;2023-05-09T07:15:12;101656.75;;;30.85;21.57
57900;BME280;60605;53.716;19.940;2023-05-09T07:20:24;101654.30;;;31.10;20.66
57900;BME280;60605;53.716;19.940;2023-05-09T07:25:28;101650.20;;;30.80;19.98
57900;BME280;60605;53.716;19.940;2023-05-09T07:30:31;101643.35;;;30.66;20.00
57900;BME280;60605;53.716;19.940;2023-05-09T07:35:34;101641.73;;;31.25;19.77
57900;BME280;60605;53.716;19.940;2023-05-09T07:40:37;101637.61;;;31.53;18.83
57900;BME280;60605;53.716;19.940;2023-05-09T07:45:41;101631.79;;;31.77;19.53
57900;BME280;60605;53.716;19.940;2023-05-09T07:50:44;101628.05;;;33.23;19.43
57900;BME280;60605;53.716;19.940;2023-05-09T07:55:47;101628.52;;;34.21;17.28
57900;BME280;60605;53.716;19.940;2023-05-09T08:00:54;101622.27;;;33.83;16.87
57900;BME280;60605;53.716;19.940;2023-05-09T08:05:57;101615.77;;;34.03;16.37
57900;BME280;60605;53.716;19.940;2023-05-09T08:11:00;101612.48;;;34.41;16.19
57900;BME280;60605;53.716;19.940;2023-05-09T08:16:03;101610.46;;;34.41;15.64
57900;BME280;60605;53.716;19.940;2023-05-09T08:21:06;101605.08;;;34.23;15.81
57900;BME280;60605;53.716;19.940;2023-05-09T08:26:09;101599.39;;;34.23;16.17
57900;BME280;60605;53.716;19.940;2023-05-09T08:31:12;101601.45;;;34.90;16.23
57900;BME280;60605;53.716;19.940;2023-05-09T08:36:15;101601.23;;;35.47;15.91
57900;BME280;60605;53.716;19.940;2023-05-09T08:41:18;101593.66;;;36.07;15.37
57900;BME280;60605;53.716;19.940;2023-05-09T08:46:28;101582.52;;;35.95;15.33
57900;BME280;60605;53.716;19.940;2023-05-09T08:51:33;101575.55;;;35.52;14.97
57900;BME280;60605;53.716;19.940;2023-05-09T08:56:37;101567.66;;;34.89;15.57
57900;BME280;60605;53.716;19.940;2023-05-09T09:01:40;101562.23;;;34.63;15.71
57900;BME280;60605;53.716;19.940;2023-05-09T09:06:43;101553.81;;;34.64;15.97
57900;BME280;60605;53.716;19.940;2023-05-09T09:11:47;101550.52;;;34.37;15.76
57900;BME280;60605;53.716;19.940;2023-05-09T09:16:50;101538.01;;;33.50;15.26
57900;BME280;60605;53.716;19.940;2023-05-09T09:21:54;101535.11;;;32.68;16.28
57900;BME280;60605;53.716;19.940;2023-05-09T09:27:03;101533.38;;;32.98;16.79
57900;BME280;60605;53.716;19.940;2023-05-09T09:32:08;101532.48;;;33.60;15.88
57900;BME280;60605;53.716;19.940;2023-05-09T09:37:20;101534.75;;;33.70;16.04
57900;BME280;60605;53.716;19.940;2023-05-09T09:42:23;101531.53;;;33.60;15.23
57900;BME280;60605;53.716;19.940;2023-05-09T09:47:33;101526.74;;;33.55;15.76
57900;BME280;60605;53.716;19.940;2023-05-09T09:52:36;101520.19;;;33.57;15.30
57900;BME280;60605;53.716;19.940;2023-05-09T09:57:43;101515.11;;;33.51;16.29
57900;BME280;60605;53.716;19.940;2023-05-09T10:02:48;101508.45;;;33.20;15.72
57900;BME280;60605;53.716;19.940;2023-05-09T10:08:01;101501.63;;;30.47;16.73
57900;BME280;60605;53.716;19.940;2023-05-09T10:13:08;101493.44;;;28.54;19.07
57900;BME280;60605;53.716;19.940;2023-05-09T10:18:12;101486.13;;;27.00;19.96
57900;BME280;60605;53.716;19.940;2023-05-09T10:23:21;101480.05;;;25.78;21.47
57900;BME280;60605;53.716;19.940;2023-05-09T10:28:27;101472.87;;;24.82;22.18
57900;BME280;60605;53.716;19.940;2023-05-09T10:33:35;101464.16;;;23.82;22.74
57900;BME280;60605;53.716;19.940;2023-05-09T10:38:39;101458.57;;;22.76;23.34
57900;BME280;60605;53.716;19.940;2023-05-09T10:43:44;101451.70;;;22.34;24.93
57900;BME280;60605;53.716;19.940;2023-05-09T10:48:47;101446.83;;;22.31;25.60
57900;BME280;60605;53.716;19.940;2023-05-09T10:53:51;101437.05;;;22.21;25.06
57900;BME280;60605;53.716;19.940;2023-05-09T10:58:55;101435.93;;;21.88;24.31
57900;BME280;60605;53.716;19.940;2023-05-09T11:03:59;101424.33;;;21.31;24.17
57900;BME280;60605;53.716;19.940;2023-05-09T11:14:42;101409.95;;;20.74;24.98
57900;BME280;60605;53.716;19.940;2023-05-09T11:24:59;101387.41;;;20.35;24.98
57900;BME280;60605;53.716;19.940;2023-05-09T11:30:04;101390.77;;;20.26;26.79
57900;BME280;60605;53.716;19.940;2023-05-09T11:40:18;101382.17;;;20.53;27.22
57900;BME280;60605;53.716;19.940;2023-05-09T11:45:22;101371.27;;;20.65;27.23
57900;BME280;60605;53.716;19.940;2023-05-09T11:50:26;101365.89;;;20.68;26.29
57900;BME280;60605;53.716;19.940;2023-05-09T11:55:30;101363.28;;;20.48;25.99
57900;BME280;60605;53.716;19.940;2023-05-09T12:00:34;101351.91;;;20.33;26.39
57900;BME280;60605;53.716;19.940;2023-05-09T12:05:38;101342.98;;;20.29;26.64
57900;BME280;60605;53.716;19.940;2023-05-09T12:10:42;101334.86;;;20.14;26.72
57900;BME280;60605;53.716;19.940;2023-05-09T12:15:45;101325.23;;;20.10;27.38
57900;BME280;60605;53.716;19.940;2023-05-09T12:20:48;101319.98;;;20.17;27.38
57900;BME280;60605;53.716;19.940;2023-05-09T12:25:53;101315.98;;;20.32;27.25
57900;BME280;60605;53.716;19.940;2023-05-09T12:30:57;101314.94;;;20.53;27.60
57900;BME280;60605;53.716;19.940;2023-05-09T12:36:07;101306.70;;;20.70;27.11
57900;BME280;60605;53.716;19.940;2023-05-09T12:41:12;101304.41;;;20.50;26.91
57900;BME280;60605;53.716;19.940;2023-05-09T12:46:35;101298.59;;;20.23;26.87
57900;BME280;60605;53.716;19.940;2023-05-09T12:51:46;101287.52;;;19.89;26.75
57900;BME280;60605;53.716;19.940;2023-05-09T12:56:50;101281.60;;;19.87;28.37
57900;BME280;60605;53.716;19.940;2023-05-09T13:01:58;101273.11;;;20.15;28.35
57900;BME280;60605;53.716;19.940;2023-05-09T13:07:07;101263.63;;;20.25;27.72
57900;BME280;60605;53.716;19.940;2023-05-09T13:12:10;101259.97;;;20.27;27.76
57900;BME280;60605;53.716;19.940;2023-05-09T13:17:13;101252.42;;;20.28;27.51
57900;BME280;60605;53.716;19.940;2023-05-09T13:22:16;101254.59;;;20.15;27.49
57900;BME280;60605;53.716;19.940;2023-05-09T13:27:20;101251.77;;;20.13;27.20
57900;BME280;60605;53.716;19.940;2023-05-09T13:32:23;101240.21;;;19.98;27.16
57900;BME280;60605;53.716;19.940;2023-05-09T13:37:26;101232.59;;;19.98;28.36
57900;BME280;60605;53.716;19.940;2023-05-09T13:42:30;101228.61;;;19.99;27.78
57900;BME280;60605;53.716;19.940;2023-05-09T13:47:33;101212.30;;;19.80;27.31
57900;BME280;60605;53.716;19.940;2023-05-09T13:52:38;101205.67;;;19.77;27.88
57900;BME280;60605;53.716;19.940;2023-05-09T13:57:42;101200.65;;;19.88;28.25
57900;BME280;60605;53.716;19.940;2023-05-09T14:02:45;101189.39;;;19.98;27.96
57900;BME280;60605;53.716;19.940;2023-05-09T14:07:48;101189.73;;;19.81;27.63
57900;BME280;60605;53.716;19.940;2023-05-09T14:12:52;101182.80;;;19.72;27.98
57900;BME280;60605;53.716;19.940;2023-05-09T14:17:56;101179.93;;;19.74;27.94
57900;BME280;60605;53.716;19.940;2023-05-09T14:22:59;101170.96;;;19.73;28.57
57900;BME280;60605;53.716;19.940;2023-05-09T14:28:02;101168.33;;;19.69;28.20
57900;BME280;60605;53.716;19.940;2023-05-09T14:33:05;101167.67;;;19.57;27.96
57900;BME280;60605;53.716;19.940;2023-05-09T14:38:09;101163.52;;;19.43;28.54
57900;BME280;60605;53.716;19.940;2023-05-09T14:43:14;101161.22;;;19.42;28.88
57900;BME280;60605;53.716;19.940;2023-05-09T14:48:17;101153.91;;;19.46;29.34
57900;BME280;60605;53.716;19.940;2023-05-09T14:53:21;101153.09;;;19.39;28.60
57900;BME280;60605;53.716;19.940;2023-05-09T14:58:25;101146.05;;;19.27;29.11
57900;BME280;60605;53.716;19.940;2023-05-09T15:03:28;101139.02;;;19.27;29.54
57900;BME280;60605;53.716;19.940;2023-05-09T15:08:32;101133.39;;;19.30;29.33
57900;BME280;60605;53.716;19.940;2023-05-09T15:13:37;101127.13;;;19.31;29.56
57900;BME280;60605;53.716;19.940;2023-05-09T15:18:40;101124.88;;;19.27;29.03
57900;BME280;60605;53.716;19.940;2023-05-09T15:23:45;101116.39;;;19.25;28.91
57900;BME280;60605;53.716;19.940;2023-05-09T15:28:48;101112.49;;;19.18;28.91
57900;BME280;60605;53.716;19.940;2023-05-09T15:33:51;101103.27;;;19.11;29.04
57900;BME280;60605;53.716;19.940;2023-05-09T15:38:54;101097.42;;;19.02;29.31
57900;BME280;60605;53.716;19.940;2023-05-09T15:43:57;101094.63;;;19.00;29.61
57900;BME280;60605;53.716;19.940;2023-05-09T15:49:01;101089.48;;;18.96;29.54
57900;BME280;60605;53.716;19.940;2023-05-09T15:54:05;101089.15;;;18.86;29.51
57900;BME280;60605;53.716;19.940;2023-05-09T15:59:07;101078.05;;;18.76;29.33
57900;BME280;60605;53.716;19.940;2023-05-09T16:04:11;101073.05;;;18.67;29.41
57900;BME280;60605;53.716;19.940;2023-05-09T16:09:15;101064.81;;;18.60;29.73
57900;BME280;60605;53.716;19.940;2023-05-09T16:14:18;101053.57;;;18.53;29.96
57900;BME280;60605;53.716;19.940;2023-05-09T16:19:22;101049.58;;;18.44;30.25
57900;BME280;60605;53.716;19.940;2023-05-09T16:24:25;101044.52;;;18.37;30.44
57900;BME280;60605;53.716;19.940;2023-05-09T16:29:28;101039.61;;;18.29;30.18
57900;BME280;60605;53.716;19.940;2023-05-09T16:34:31;101034.52;;;18.17;30.51
57900;BME280;60605;53.716;19.940;2023-05-09T16:39:34;101035.13;;;18.07;30.67
57900;BME280;60605;53.716;19.940;2023-05-09T16:44:37;101028.27;;;17.94;30.80
57900;BME280;60605;53.716;19.940;2023-05-09T16:49:41;101029.02;;;17.85;31.02
57900;BME280;60605;53.716;19.940;2023-05-09T16:54:44;101023.95;;;17.78;31.09
57900;BME280;60605;53.716;19.940;2023-05-09T16:59:47;101019.75;;;17.66;30.72
57900;BME280;60605;53.716;19.940;2023-05-09T17:04:50;101012.48;;;17.51;30.64
57900;BME280;60605;53.716;19.940;2023-05-09T17:09:53;101017.77;;;17.38;30.94
57900;BME280;60605;53.716;19.940;2023-05-09T17:14:57;101012.48;;;17.25;31.28
57900;BME280;60605;53.716;19.940;2023-05-09T17:20:00;101006.18;;;17.11;31.69
57900;BME280;60605;53.716;19.940;2023-05-09T17:25:04;101005.70;;;16.94;31.57
57900;BME280;60605;53.716;19.940;2023-05-09T17:30:08;101004.41;;;16.79;31.59
57900;BME280;60605;53.716;19.940;2023-05-09T17:35:12;101004.80;;;16.65;31.77
57900;BME280;60605;53.716;19.940;2023-05-09T17:40:15;101000.02;;;16.50;31.91
57900;BME280;60605;53.716;19.940;2023-05-09T17:45:19;100993.23;;;16.32;32.49
57900;BME280;60605;53.716;19.940;2023-05-09T17:50:22;100990.95;;;16.13;32.85
57900;BME280;60605;53.716;19.940;2023-05-09T17:55:25;100998.15;;;15.92;33.10
57900;BME280;60605;53.716;19.940;2023-05-09T18:00:28;101000.23;;;15.71;33.49
57900;BME280;60605;53.716;19.940;2023-05-09T18:05:32;101004.42;;;15.51;33.60
57900;BME280;60605;53.716;19.940;2023-05-09T18:10:35;101005.98;;;15.32;34.00
57900;BME280;60605;53.716;19.940;2023-05-09T18:15:39;101006.48;;;15.12;34.48
57900;BME280;60605;53.716;19.940;2023-05-09T18:20:43;101009.90;;;14.96;34.80
57900;BME280;60605;53.716;19.940;2023-05-09T18:25:48;101013.23;;;14.78;35.17
57900;BME280;60605;53.716;19.940;2023-05-09T18:30:52;101012.21;;;14.57;35.60
57900;BME280;60605;53.716;19.940;2023-05-09T18:35:56;101010.20;;;14.37;36.03
57900;BME280;60605;53.716;19.940;2023-05-09T18:41:00;101010.13;;;14.21;36.53
57900;BME280;60605;53.716;19.940;2023-05-09T18:46:03;101010.98;;;14.07;36.96
57900;BME280;60605;53.716;19.940;2023-05-09T18:51:07;101012.15;;;13.90;37.29
57900;BME280;60605;53.716;19.940;2023-05-09T18:56:12;101014.35;;;13.75;37.73
57900;BME280;60605;53.716;19.940;2023-05-09T19:01:16;101017.13;;;13.60;38.21
57900;BME280;60605;53.716;19.940;2023-05-09T19:06:20;101021.30;;;13.47;38.52
57900;BME280;60605;53.716;19.940;2023-05-09T19:11:23;101019.10;;;13.33;38.89
57900;BME280;60605;53.716;19.940;2023-05-09T19:16:28;101018.83;;;13.22;39.21
57900;BME280;60605;53.716;19.940;2023-05-09T19:21:32;101018.54;;;13.14;39.43
57900;BME280;60605;53.716;19.940;2023-05-09T19:26:37;101015.86;;;13.03;39.69
57900;BME280;60605;53.716;19.940;2023-05-09T19:31:40;101011.42;;;12.89;39.90
57900;BME280;60605;53.716;19.940;2023-05-09T19:36:44;101003.74;;;12.76;40.14
57900;BME280;60605;53.716;19.940;2023-05-09T19:41:47;101003.56;;;12.64;40.41
57900;BME280;60605;53.716;19.940;2023-05-09T19:46:50;101003.38;;;12.51;40.70
57900;BME280;60605;53.716;19.940;2023-05-09T19:51:54;101001.05;;;12.38;41.02
57900;BME280;60605;53.716;19.940;2023-05-09T19:56:57;100997.80;;;12.25;41.25
57900;BME280;60605;53.716;19.940;2023-05-09T20:02:00;100999.25;;;12.06;41.83
57900;BME280;60605;53.716;19.940;2023-05-09T20:07:04;101008.64;;;11.83;42.66
57900;BME280;60605;53.716;19.940;2023-05-09T20:12:10;101008.80;;;11.58;43.29
57900;BME280;60605;53.716;19.940;2023-05-09T20:17:15;101017.98;;;11.36;43.94
57900;BME280;60605;53.716;19.940;2023-05-09T20:22:19;101021.85;;;11.17;44.49
57900;BME280;60605;53.716;19.940;2023-05-09T20:27:22;101024.13;;;11.00;45.11
57900;BME280;60605;53.716;19.940;2023-05-09T20:32:25;101022.64;;;10.83;45.88
57900;BME280;60605;53.716;19.940;2023-05-09T20:37:29;101023.39;;;10.66;46.52
57900;BME280;60605;53.716;19.940;2023-05-09T20:42:33;101020.69;;;10.51;47.09
57900;BME280;60605;53.716;19.940;2023-05-09T20:47:37;101025.91;;;10.34;47.79
57900;BME280;60605;53.716;19.940;2023-05-09T20:52:41;101019.60;;;10.18;48.77
57900;BME280;60605;53.716;19.940;2023-05-09T20:57:44;101016.47;;;10.05;49.19
57900;BME280;60605;53.716;19.940;2023-05-09T21:02:47;101019.09;;;9.91;49.84
57900;BME280;60605;53.716;19.940;2023-05-09T21:07:51;101017.98;;;9.77;50.39
57900;BME280;60605;53.716;19.940;2023-05-09T21:12:54;101013.84;;;9.61;50.97
57900;BME280;60605;53.716;19.940;2023-05-09T21:17:57;101015.02;;;9.42;52.04
57900;BME280;60605;53.716;19.940;2023-05-09T21:23:00;101020.83;;;9.26;53.15
57900;BME280;60605;53.716;19.940;2023-05-09T21:28:03;101017.06;;;9.11;54.00
57900;BME280;60605;53.716;19.940;2023-05-09T21:33:07;101013.80;;;8.99;54.59
57900;BME280;60605;53.716;19.940;2023-05-09T21:38:10;101011.27;;;8.89;55.12
57900;BME280;60605;53.716;19.940;2023-05-09T21:43:14;101010.19;;;8.78;55.66
57900;BME280;60605;53.716;19.940;2023-05-09T21:48:17;101009.80;;;8.67;56.04
57900;BME280;60605;53.716;19.940;2023-05-09T21:53:20;101010.29;;;8.57;56.52
57900;BME280;60605;53.716;19.940;2023-05-09T21:58:25;101012.38;;;8.46;56.88
57900;BME280;60605;53.716;19.940;2023-05-09T22:03:28;101015.77;;;8.35;57.38
57900;BME280;60605;53.716;19.940;2023-05-09T22:08:31;101017.12;;;8.25;57.87
57900;BME280;60605;53.716;19.940;2023-05-09T22:13:34;101012.88;;;8.15;58.53
57900;BME280;60605;53.716;19.940;2023-05-09T22:18:38;101013.20;;;8.06;58.77
57900;BME280;60605;53.716;19.940;2023-05-09T22:23:41;101012.60;;;7.96;59.22
57900;BME280;60605;53.716;19.940;2023-05-09T22:28:45;101011.46;;;7.88;60.17
57900;BME280;60605;53.716;19.940;2023-05-09T22:33:48;101011.34;;;7.85;60.64
57900;BME280;60605;53.716;19.940;2023-05-09T22:38:51;101005.48;;;7.80;60.85
57900;BME280;60605;53.716;19.940;2023-05-09T22:43:54;101001.38;;;7.73;61.14
57900;BME280;60605;53.716;19.940;2023-05-09T22:48:57;101004.62;;;7.66;61.45
57900;BME280;60605;53.716;19.940;2023-05-09T22:54:00;101003.27;;;7.58;61.99
57900;BME280;60605;53.716;19.940;2023-05-09T22:59:03;100999.19;;;7.51;62.31
57900;BME280;60605;53.716;19.940;2023-05-09T23:04:06;100993.61;;;7.43;62.33
57900;BME280;60605;53.716;19.940;2023-05-09T23:09:09;100996.27;;;7.31;62.48
57900;BME280;60605;53.716;19.940;2023-05-09T23:14:12;100998.42;;;7.16;62.87
57900;BME280;60605;53.716;19.940;2023-05-09T23:19:16;101001.27;;;7.04;63.41
57900;BME280;60605;53.716;19.940;2023-05-09T23:24:18;100991.98;;;6.95;64.14
57900;BME280;60605;53.716;19.940;2023-05-09T23:29:22;100991.64;;;6.93;64.79
57900;BME280;60605;53.716;19.940;2023-05-09T23:34:25;100992.79;;;6.92;65.14
57900;BME280;60605;53.716;19.940;2023-05-09T23:39:28;100995.25;;;6.90;65.25
57900;BME280;60605;53.716;19.940;2023-05-09T23:44:31;100992.83;;;6.86;65.25
57900;BME280;60605;53.716;19.940;2023-05-09T23:49:34;100990.80;;;6.80;65.62
57900;BME280;60605;53.716;19.940;2023-05-09T23:54:38;100989.52;;;6.76;65.87
57900;BME280;60605;53.716;19.940;2023-05-09T23:59:41;100988.29;;;6.73;66.55
